NORTHEAST SUFFOLK  -  Winter Weather Advisory Winter Weather Advisory     Winter Weather Advisory Winter Weather Advisory        NORTHERN NASSAU  -  Winter Weather Advisory Winter Weather Advisory        NORTHWEST SUFFOLK  -  Winter Weather Advisory Winter Weather Advisory     Winter Weather Advisory Winter Weather Advisory        SOUTHEAST SUFFOLK  -  Winter Weather Advisory Winter Weather Advisory     Winter Weather Advisory Winter Weather Advisory        SOUTHERN NASSAU  -  Winter Weather Advisory Winter Weather Advisory        SOUTHWEST SUFFOLK  -  Winter Weather Advisory Winter Weather Advisory     Winter Weather Advisory Winter Weather Advisory      

Active alerts

Northern Nassau
  Details for Northern Nassau Winter Weather Advisory
Southern Nassau
  Details for Southern Nassau Winter Weather Advisory
Northwest Suffolk
  Details for Northwest Suffolk Winter Weather Advisory  +1 additional alert
Southwest Suffolk
  Details for Southwest Suffolk Winter Weather Advisory  +1 additional alert
Northeast Suffolk
  Details for Northeast Suffolk Winter Weather Advisory  +1 additional alert
Southeast Suffolk
  Details for Southeast Suffolk Winter Weather Advisory  +1 additional alert


WXM80 ListenWXM80 Stop

You find our weather info also at:

UK Metoffice

WeatherCloud

Weather Underground

Northeastern Weather Network

AWEKAS

Citizen Weather Observer Program (CWOP)

HAMweather, WeatherForYou, PWS Weather


Weather Underground History page Text

Daily Summary for May 21, 2016 Units:  English    Metric   Both
« Previous Day
Next Day »
Daily Weekly Monthly Yearly Custom
  High: Low: Average:
Temperature: 64.7 °F 50.0 °F 57.8 °F
Dew Point: 55.7 °F 46.1 °F 50.5 °F
Humidity: 93 % 53 % 78 %
Wind Speed: 5.9 mph 0.0 mph 1 mph
Wind Gust: 11.5 mph - -
Wind:- - ESE
Pressure: 30.18 in 29.86 in -
Precipitation: 0.00 in    
Historical Graphs
 
 
Tabular Data for May 21, 2016
Time Temperature Dew Point Pressure Wind Wind Speed Wind Gust Humidity Rainfall Rate (Hourly)
00:00 56.8 °F 47.1 °F 30.18 in Calm     70 % 0.00 in
00:05 56.6 °F 46.9 °F 30.18 in Calm     70 % 0.00 in
00:15 56.3 °F 47.4 °F 30.18 in Calm     72 % 0.00 in
00:20 56.1 °F 47.6 °F 30.18 in Calm     73 % 0.00 in
00:26 55.9 °F 47.7 °F 30.18 in Calm     74 % 0.00 in
00:31 55.7 °F 47.5 °F 30.18 in Calm     74 % 0.00 in
00:41 55.3 °F 47.2 °F 30.18 in Calm     74 % 0.00 in
00:46 55.1 °F 47.0 °F 30.18 in Calm     74 % 0.00 in
00:51 55.0 °F 47.2 °F 30.18 in Calm     75 % 0.00 in
00:56 54.8 °F 47.0 °F 30.17 in Calm     75 % 0.00 in
01:01 54.6 °F 47.2 °F 30.17 in Calm   1.2 mph 76 % 0.00 in
01:06 54.3 °F 46.9 °F 30.17 in Calm     76 % 0.00 in
01:11 54.1 °F 47.4 °F 30.17 in WSW 0.4 mph 1.2 mph 78 % 0.00 in
01:17 53.9 °F 46.9 °F 30.17 in Calm     77 % 0.00 in
01:22 53.7 °F 47.0 °F 30.17 in WSW 0.1 mph 1.2 mph 78 % 0.00 in
01:32 53.5 °F 46.8 °F 30.17 in Calm     78 % 0.00 in
01:37 53.3 °F 47.0 °F 30.17 in Calm     79 % 0.00 in
01:42 53.2 °F 46.9 °F 30.17 in Calm     79 % 0.00 in
01:47 53.1 °F 46.8 °F 30.17 in Calm     79 % 0.00 in
01:52 53.0 °F 47.0 °F 30.16 in Calm     80 % 0.00 in
01:57 53.0 °F 47.3 °F 30.16 in Calm     81 % 0.00 in
02:02 52.9 °F 47.2 °F 30.16 in Calm     81 % 0.00 in
02:13 52.8 °F 47.1 °F 30.15 in Calm     81 % 0.00 in
02:18 52.8 °F 47.1 °F 30.15 in Calm     81 % 0.00 in
02:23 52.8 °F 47.1 °F 30.15 in Calm     81 % 0.00 in
02:28 52.8 °F 47.5 °F 30.15 in Calm     82 % 0.00 in
02:33 52.8 °F 47.5 °F 30.15 in Calm     82 % 0.00 in
02:38 52.8 °F 47.8 °F 30.15 in Calm     83 % 0.00 in
02:43 52.8 °F 47.8 °F 30.14 in WSW 0.1 mph 1.2 mph 83 % 0.00 in
02:48 52.8 °F 48.1 °F 30.14 in Calm     84 % 0.00 in
02:53 52.8 °F 48.1 °F 30.14 in Calm     84 % 0.00 in
02:59 52.9 °F 48.2 °F 30.14 in Calm     84 % 0.00 in
03:04 52.9 °F 48.2 °F 30.14 in Calm   1.2 mph 84 % 0.00 in
03:09 52.9 °F 48.2 °F 30.14 in Calm     84 % 0.00 in
03:14 52.9 °F 48.2 °F 30.14 in Calm     84 % 0.00 in
03:19 52.9 °F 48.2 °F 30.14 in WSW 0.1 mph 1.0 mph 84 % 0.00 in
03:24 52.9 °F 48.2 °F 30.14 in Calm     84 % 0.00 in
03:29 52.9 °F 48.2 °F 30.14 in WSW 0.1 mph 1.2 mph 84 % 0.00 in
03:34 52.8 °F 48.1 °F 30.14 in WSW 0.1 mph 1.2 mph 84 % 0.00 in
03:39 52.8 °F 48.1 °F 30.14 in WSW 0.1 mph 1.2 mph 84 % 0.00 in
03:44 52.7 °F 48.0 °F 30.14 in Calm   1.0 mph 84 % 0.00 in
03:50 52.7 °F 48.0 °F 30.13 in Calm     84 % 0.00 in
04:00 52.6 °F 47.9 °F 30.14 in Calm     84 % 0.00 in
04:05 52.5 °F 47.8 °F 30.14 in WSW 0.7 mph 2.3 mph 84 % 0.00 in
04:10 52.5 °F 47.8 °F 30.14 in WSW 0.6 mph 3.5 mph 84 % 0.00 in
04:15 52.4 °F 47.7 °F 30.14 in WSW 0.4 mph 1.2 mph 84 % 0.00 in
04:25 52.4 °F 47.7 °F 30.15 in Calm     84 % 0.00 in
04:30 52.3 °F 47.6 °F 30.15 in Calm     84 % 0.00 in
04:35 52.2 °F 47.5 °F 30.15 in WSW 0.7 mph 1.2 mph 84 % 0.00 in
04:40 52.1 °F 47.7 °F 30.15 in WSW 0.1 mph 1.2 mph 85 % 0.00 in
04:45 52.0 °F 47.6 °F 30.15 in West 1.2 mph 2.3 mph 85 % 0.00 in
04:51 51.9 °F 47.8 °F 30.15 in SW 0.1 mph 1.2 mph 86 % 0.00 in
04:56 51.9 °F 47.8 °F 30.15 in Calm     86 % 0.00 in
05:01 51.7 °F 47.6 °F 30.15 in Calm     86 % 0.00 in
05:06 51.5 °F 47.5 °F 30.14 in Calm     86 % 0.00 in
05:11 51.4 °F 47.4 °F 30.14 in Calm     86 % 0.00 in
05:16 51.3 °F 47.3 °F 30.14 in Calm     86 % 0.00 in
05:21 51.1 °F 47.1 °F 30.14 in Calm     86 % 0.00 in
05:26 50.9 °F 46.9 °F 30.14 in Calm     86 % 0.00 in
05:31 50.7 °F 46.7 °F 30.14 in Calm     86 % 0.00 in
05:36 50.5 °F 46.8 °F 30.14 in Calm     87 % 0.00 in
05:42 50.4 °F 46.7 °F 30.14 in Calm     87 % 0.00 in
05:47 50.3 °F 46.9 °F 30.15 in Calm   1.2 mph 88 % 0.00 in
05:52 50.2 °F 46.8 °F 30.15 in Calm     88 % 0.00 in
05:57 50.1 °F 46.7 °F 30.15 in Calm     88 % 0.00 in
06:02 50.1 °F 47.0 °F 30.14 in Calm     89 % 0.00 in
06:07 50.1 °F 47.0 °F 30.14 in Calm     89 % 0.00 in
06:12 50.0 °F 46.9 °F 30.14 in Calm     89 % 0.00 in
06:22 50.1 °F 47.3 °F 30.14 in Calm     90 % 0.00 in
06:27 50.4 °F 47.9 °F 30.14 in Calm     91 % 0.00 in
06:33 50.7 °F 48.5 °F 30.14 in Calm     92 % 0.00 in
06:38 51.0 °F 48.8 °F 30.14 in Calm     92 % 0.00 in
06:43 51.6 °F 49.6 °F 30.14 in Calm     93 % 0.00 in
06:48 52.1 °F 50.1 °F 30.14 in Calm     93 % 0.00 in
06:53 52.4 °F 50.1 °F 30.14 in Calm     92 % 0.00 in
07:03 53.0 °F 50.4 °F 30.14 in Calm     91 % 0.00 in
07:08 53.3 °F 50.7 °F 30.14 in Calm     91 % 0.00 in
07:13 53.7 °F 51.1 °F 30.13 in Calm     91 % 0.00 in
07:19 54.1 °F 51.5 °F 30.13 in SW 0.3 mph 1.2 mph 91 % 0.00 in
07:24 54.7 °F 51.8 °F 30.13 in Calm     90 % 0.00 in
07:29 55.4 °F 52.5 °F 30.13 in Calm   1.2 mph 90 % 0.00 in
07:34 55.9 °F 52.7 °F 30.13 in SW 0.9 mph 2.3 mph 89 % 0.00 in
07:39 56.3 °F 52.8 °F 30.13 in ENE 1.1 mph 3.5 mph 88 % 0.00 in
07:44 56.6 °F 52.8 °F 30.13 in Calm   1.2 mph 87 % 0.00 in
07:49 56.9 °F 53.1 °F 30.13 in ENE 0.1 mph 1.0 mph 87 % 0.00 in
07:54 57.1 °F 53.0 °F 30.13 in ENE 0.4 mph 2.3 mph 86 % 0.00 in
07:59 57.3 °F 53.1 °F 30.13 in Calm     86 % 0.00 in
08:04 57.5 °F 53.3 °F 30.13 in ENE 0.1 mph 1.2 mph 86 % 0.00 in
08:10 57.7 °F 53.5 °F 30.13 in Calm     86 % 0.00 in
08:15 58.0 °F 53.8 °F 30.13 in Calm   1.2 mph 86 % 0.00 in
08:20 58.3 °F 53.8 °F 30.13 in Calm     85 % 0.00 in
08:25 58.6 °F 53.8 °F 30.13 in ENE 0.3 mph 2.0 mph 84 % 0.00 in
08:30 59.1 °F 54.3 °F 30.13 in ENE 0.7 mph 2.3 mph 84 % 0.00 in
08:35 59.5 °F 54.0 °F 30.13 in ENE 0.7 mph 2.3 mph 82 % 0.00 in
08:40 60.0 °F 54.5 °F 30.13 in North 0.8 mph 2.3 mph 82 % 0.00 in
08:45 60.4 °F 54.2 °F 30.13 in North 1.1 mph 3.5 mph 80 % 0.00 in
08:50 60.8 °F 53.9 °F 30.13 in North 1.2 mph 3.5 mph 78 % 0.00 in
08:55 61.1 °F 54.2 °F 30.13 in North 0.6 mph 1.2 mph 78 % 0.00 in
09:01 61.3 °F 54.4 °F 30.13 in North 1.8 mph 3.5 mph 78 % 0.00 in
09:06 61.5 °F 54.2 °F 30.12 in North 0.8 mph 3.5 mph 77 % 0.00 in
09:11 61.7 °F 54.1 °F 30.12 in North 0.9 mph 2.3 mph 76 % 0.00 in
09:16 61.9 °F 54.2 °F 30.11 in North 0.6 mph 2.0 mph 76 % 0.00 in
09:21 61.9 °F 53.5 °F 30.11 in North 1.5 mph 3.0 mph 74 % 0.00 in
09:26 61.8 °F 53.1 °F 30.11 in NNE 0.7 mph 2.3 mph 73 % 0.00 in
09:31 61.6 °F 52.9 °F 30.11 in NNE 1.3 mph 2.3 mph 73 % 0.00 in
09:36 61.4 °F 53.0 °F 30.11 in NNE 0.7 mph 1.2 mph 74 % 0.00 in
09:41 61.2 °F 52.8 °F 30.11 in Calm   1.2 mph 74 % 0.00 in
09:52 60.6 °F 52.3 °F 30.12 in NE 1.3 mph 3.5 mph 74 % 0.00 in
09:57 60.3 °F 52.3 °F 30.11 in NE 1.3 mph 3.5 mph 75 % 0.00 in
10:02 60.1 °F 52.5 °F 30.11 in NE 0.9 mph 3.0 mph 76 % 0.00 in
10:12 59.9 °F 53.0 °F 30.11 in NE 1.1 mph 3.5 mph 78 % 0.00 in
10:17 59.8 °F 53.3 °F 30.11 in NE 0.1 mph 2.3 mph 79 % 0.00 in
10:22 59.8 °F 53.6 °F 30.11 in NE 0.1 mph 1.0 mph 80 % 0.00 in
10:27 59.8 °F 53.3 °F 30.11 in NE 0.7 mph 1.2 mph 79 % 0.00 in
10:32 59.7 °F 52.8 °F 30.11 in NE 0.1 mph 2.3 mph 78 % 0.00 in
10:37 59.6 °F 52.4 °F 30.11 in NE 1.3 mph 2.3 mph 77 % 0.00 in
10:43 59.6 °F 52.7 °F 30.11 in NE 0.7 mph 2.3 mph 78 % 0.00 in
10:48 59.6 °F 52.7 °F 30.10 in Calm     78 % 0.00 in
10:53 59.7 °F 53.2 °F 30.10 in NE 0.7 mph 2.3 mph 79 % 0.00 in
10:58 59.7 °F 53.2 °F 30.10 in NE 1.3 mph 3.5 mph 79 % 0.00 in
11:03 59.7 °F 53.2 °F 30.10 in NE 1.1 mph 2.3 mph 79 % 0.00 in
11:08 59.8 °F 53.6 °F 30.10 in NE 0.5 mph 2.3 mph 80 % 0.00 in
11:13 59.8 °F 53.6 °F 30.10 in NE 0.3 mph 1.2 mph 80 % 0.00 in
11:18 59.8 °F 53.6 °F 30.10 in NE 1.7 mph 2.3 mph 80 % 0.00 in
11:23 59.8 °F 54.0 °F 30.10 in NE 1.7 mph 3.5 mph 81 % 0.00 in
11:28 59.7 °F 54.2 °F 30.10 in NE 1.8 mph 3.5 mph 82 % 0.00 in
11:34 59.7 °F 54.5 °F 30.10 in NE 0.2 mph 1.2 mph 83 % 0.00 in
11:39 59.6 °F 54.4 °F 30.10 in Calm     83 % 0.00 in
11:44 59.6 °F 54.1 °F 30.09 in NE 0.6 mph 2.3 mph 82 % 0.00 in
11:49 59.7 °F 53.9 °F 30.09 in ENE 0.9 mph 2.3 mph 81 % 0.00 in
11:54 59.8 °F 53.6 °F 30.08 in ENE 1.8 mph 3.5 mph 80 % 0.00 in
11:59 59.8 °F 54.0 °F 30.08 in NE 2.2 mph 3.5 mph 81 % 0.00 in
12:04 59.9 °F 54.4 °F 30.09 in NE 1.5 mph 3.0 mph 82 % 0.00 in
12:09 60.0 °F 54.5 °F 30.08 in Calm   1.2 mph 82 % 0.00 in
12:14 60.1 °F 54.2 °F 30.08 in Calm   1.2 mph 81 % 0.00 in
12:19 60.2 °F 54.3 °F 30.08 in NE 1.1 mph 2.3 mph 81 % 0.00 in
12:30 60.5 °F 54.6 °F 30.08 in Calm     81 % 0.00 in
12:40 61.1 °F 55.2 °F 30.08 in Calm     81 % 0.00 in
12:45 61.3 °F 55.4 °F 30.07 in Calm   1.2 mph 81 % 0.00 in
12:50 61.6 °F 55.7 °F 30.07 in NE 0.2 mph 1.2 mph 81 % 0.00 in
12:57 62.1 °F 51.8 °F 30.07 in SE 5.3 mph 6.9 mph 69 % 0.00 in
13:02 62.6 °F 51.5 °F 30.07 in SE 1.0 mph 2.3 mph 67 % 0.00 in
13:07 63.2 °F 50.8 °F 30.06 in SSE 3.3 mph 5.8 mph 64 % 0.00 in
13:12 63.7 °F 50.9 °F 30.06 in SE 5.9 mph 9.2 mph 63 % 0.00 in
13:18 63.9 °F 49.7 °F 30.06 in SE 1.9 mph 5.8 mph 60 % 0.00 in
13:23 64.1 °F 49.5 °F 30.06 in SE 0.8 mph 3.5 mph 59 % 0.00 in
13:28 64.3 °F 49.7 °F 30.06 in SSE 1.5 mph 5.0 mph 59 % 0.00 in
13:33 64.5 °F 48.9 °F 30.06 in SE 3.0 mph 4.6 mph 57 % 0.00 in
13:38 64.7 °F 50.0 °F 30.06 in South 1.9 mph 3.5 mph 59 % 0.00 in
13:43 64.7 °F 48.6 °F 30.05 in SSE 4.8 mph 8.1 mph 56 % 0.00 in
13:48 64.7 °F 49.1 °F 30.05 in SE 2.6 mph 5.8 mph 57 % 0.00 in
13:53 64.7 °F 47.7 °F 30.05 in ESE 1.7 mph 8.1 mph 54 % 0.00 in
13:58 64.7 °F 49.1 °F 30.05 in SSE 2.8 mph 4.0 mph 57 % 0.00 in
14:03 64.6 °F 48.5 °F 30.05 in SSE 1.3 mph 6.0 mph 56 % 0.00 in
14:09 64.5 °F 47.0 °F 30.05 in SSE 3.7 mph 9.2 mph 53 % 0.00 in
14:14 64.3 °F 47.3 °F 30.05 in ESE 2.8 mph 6.9 mph 54 % 0.00 in
14:19 64.2 °F 47.2 °F 30.04 in SE 2.3 mph 4.6 mph 54 % 0.00 in
14:24 64.0 °F 47.5 °F 30.04 in SSE 1.5 mph 6.0 mph 55 % 0.00 in
14:29 63.9 °F 47.4 °F 30.03 in SE 3.5 mph 5.0 mph 55 % 0.00 in
14:39 63.8 °F 48.7 °F 30.02 in SSE 3.1 mph 5.0 mph 58 % 0.00 in
14:44 63.7 °F 48.6 °F 30.02 in SE 0.6 mph 2.3 mph 58 % 0.00 in
14:49 63.7 °F 47.7 °F 30.02 in SSE 3.4 mph 3.5 mph 56 % 0.00 in
14:54 63.5 °F 47.5 °F 30.02 in SE 1.9 mph 5.8 mph 56 % 0.00 in
15:00 63.6 °F 49.0 °F 30.01 in SE 1.4 mph 2.3 mph 59 % 0.00 in
15:05 63.5 °F 46.6 °F 30.01 in ESE 3.9 mph 11.5 mph 54 % 0.00 in
15:10 63.4 °F 46.9 °F 30.01 in SSE 4.9 mph 7.0 mph 55 % 0.00 in
15:15 63.4 °F 47.4 °F 30.01 in SE 1.3 mph 5.8 mph 56 % 0.00 in
15:20 63.4 °F 47.4 °F 30.01 in SE 2.4 mph 8.1 mph 56 % 0.00 in
15:25 63.4 °F 47.9 °F 30.00 in SE 2.1 mph 3.5 mph 57 % 0.00 in
15:30 63.5 °F 48.0 °F 30.00 in SE 2.9 mph 4.0 mph 57 % 0.00 in
15:35 63.5 °F 48.0 °F 29.99 in SE 2.2 mph 5.8 mph 57 % 0.00 in
15:45 63.5 °F 46.1 °F 29.99 in SE 3.5 mph 4.6 mph 53 % 0.00 in
15:51 63.4 °F 46.5 °F 29.99 in SE 2.5 mph 8.1 mph 54 % 0.00 in
15:56 63.4 °F 47.4 °F 29.99 in SSE 1.0 mph 5.0 mph 56 % 0.00 in
16:01 63.3 °F 46.4 °F 29.99 in SSE 3.8 mph 6.9 mph 54 % 0.00 in
16:06 63.1 °F 47.6 °F 29.99 in ESE 1.0 mph 3.5 mph 57 % 0.00 in
16:11 62.9 °F 47.4 °F 29.99 in SE 2.4 mph 5.8 mph 57 % 0.00 in
16:16 62.7 °F 47.2 °F 29.99 in SSE 0.4 mph 4.6 mph 57 % 0.00 in
16:21 62.6 °F 48.1 °F 29.99 in SE 0.4 mph 3.5 mph 59 % 0.00 in
16:26 62.5 °F 48.0 °F 29.99 in SSE 0.2 mph 2.3 mph 59 % 0.00 in
16:36 62.3 °F 49.1 °F 29.99 in NW 0.2 mph 1.0 mph 62 % 0.00 in
16:42 62.2 °F 48.1 °F 29.98 in SE 1.9 mph 3.5 mph 60 % 0.00 in
16:47 62.0 °F 49.7 °F 29.98 in SE 0.8 mph 2.3 mph 64 % 0.00 in
16:52 61.7 °F 49.0 °F 29.98 in Calm   3.5 mph 63 % 0.00 in
16:57 61.6 °F 47.6 °F 29.98 in SSE 3.9 mph 6.9 mph 60 % 0.00 in
17:02 61.5 °F 47.5 °F 29.98 in SE 3.1 mph 6.9 mph 60 % 0.00 in
17:07 61.4 °F 47.8 °F 29.98 in SSE 1.9 mph 3.5 mph 61 % 0.00 in
17:12 61.4 °F 47.8 °F 29.98 in SSE 2.2 mph 3.5 mph 61 % 0.00 in
17:17 61.4 °F 48.3 °F 29.98 in SE 1.1 mph 2.3 mph 62 % 0.00 in
17:22 61.4 °F 48.3 °F 29.98 in SE 1.4 mph 5.8 mph 62 % 0.00 in
17:27 61.3 °F 48.2 °F 29.98 in SE 2.3 mph 4.6 mph 62 % 0.00 in
17:33 61.2 °F 48.1 °F 29.98 in SSE 2.1 mph 3.5 mph 62 % 0.00 in
17:43 61.2 °F 49.3 °F 29.97 in Calm     65 % 0.00 in
17:48 61.1 °F 50.1 °F 29.96 in Calm     67 % 0.00 in
17:53 61.1 °F 50.1 °F 29.96 in Calm     67 % 0.00 in
17:58 61.2 °F 50.6 °F 29.96 in SSE 0.5 mph 1.2 mph 68 % 0.00 in
18:03 61.1 °F 50.5 °F 29.96 in Calm   1.2 mph 68 % 0.00 in
18:08 61.1 °F 50.5 °F 29.96 in Calm     68 % 0.00 in
18:13 61.1 °F 50.1 °F 29.96 in Calm     67 % 0.00 in
18:18 61.2 °F 50.9 °F 29.96 in Calm   1.2 mph 69 % 0.00 in
18:24 61.2 °F 50.6 °F 29.96 in Calm   1.2 mph 68 % 0.00 in
18:29 61.3 °F 50.6 °F 29.96 in SSE 0.1 mph 1.2 mph 68 % 0.00 in
18:34 61.3 °F 50.6 °F 29.96 in NE 0.7 mph 2.3 mph 68 % 0.00 in
18:44 61.2 °F 50.9 °F 29.95 in ENE 2.3 mph 3.5 mph 69 % 0.00 in
18:49 61.0 °F 51.5 °F 29.95 in ENE 2.0 mph 3.5 mph 71 % 0.00 in
18:54 60.7 °F 51.2 °F 29.95 in ENE 1.8 mph 3.5 mph 71 % 0.00 in
18:59 60.5 °F 51.4 °F 29.96 in ENE 1.7 mph 2.3 mph 72 % 0.00 in
19:04 60.2 °F 51.5 °F 29.95 in NE 1.3 mph 3.5 mph 73 % 0.00 in
19:09 60.0 °F 51.3 °F 29.95 in ENE 1.3 mph 3.5 mph 73 % 0.00 in
19:15 59.9 °F 51.6 °F 29.95 in ENE 0.5 mph 1.2 mph 74 % 0.00 in
19:20 59.7 °F 52.1 °F 29.94 in NNE 2.1 mph 4.6 mph 76 % 0.00 in
19:25 59.5 °F 52.3 °F 29.94 in NNE 1.4 mph 3.5 mph 77 % 0.00 in
19:30 59.4 °F 52.9 °F 29.94 in NE 1.9 mph 3.5 mph 79 % 0.00 in
19:35 59.1 °F 52.6 °F 29.94 in ENE 1.9 mph 4.0 mph 79 % 0.00 in
19:40 58.9 °F 53.1 °F 29.93 in ENE 2.3 mph 3.5 mph 81 % 0.00 in
19:45 58.6 °F 52.8 °F 29.93 in ENE 2.1 mph 4.0 mph 81 % 0.00 in
19:50 58.4 °F 52.6 °F 29.93 in ENE 1.7 mph 3.5 mph 81 % 0.00 in
19:55 58.3 °F 52.5 °F 29.93 in ENE 2.8 mph 4.6 mph 81 % 0.00 in
20:06 57.9 °F 53.1 °F 29.92 in ENE 0.3 mph 2.3 mph 84 % 0.00 in
20:11 57.8 °F 53.3 °F 29.92 in ENE 4.2 mph 8.1 mph 85 % 0.00 in
20:16 57.7 °F 53.2 °F 29.92 in ENE 3.9 mph 6.9 mph 85 % 0.00 in
20:21 57.6 °F 53.4 °F 29.92 in ENE 2.7 mph 4.6 mph 86 % 0.00 in
20:26 57.4 °F 53.2 °F 29.92 in NE 4.2 mph 4.6 mph 86 % 0.00 in
20:31 57.2 °F 53.0 °F 29.92 in NE 2.0 mph 6.9 mph 86 % 0.00 in
20:36 57.1 °F 53.0 °F 29.92 in NE 1.2 mph 2.3 mph 86 % 0.00 in
20:41 56.9 °F 52.8 °F 29.92 in ENE 3.4 mph 4.6 mph 86 % 0.00 in
20:46 56.9 °F 52.8 °F 29.92 in ENE 2.7 mph 4.6 mph 86 % 0.00 in
20:51 56.8 °F 52.7 °F 29.92 in NE 1.8 mph 3.5 mph 86 % 0.00 in
20:57 56.8 °F 52.7 °F 29.92 in NE 1.2 mph 2.3 mph 86 % 0.00 in
21:02 56.8 °F 53.0 °F 29.92 in ENE 1.5 mph 3.5 mph 87 % 0.00 in
21:07 56.7 °F 52.9 °F 29.92 in ENE 3.0 mph 4.6 mph 87 % 0.00 in
21:12 56.7 °F 52.9 °F 29.92 in ENE 2.2 mph 3.5 mph 87 % 0.00 in
21:17 56.7 °F 53.2 °F 29.92 in ENE 0.8 mph 2.3 mph 88 % 0.00 in
21:22 56.6 °F 53.1 °F 29.92 in ENE 0.5 mph 1.2 mph 88 % 0.00 in
21:27 56.6 °F 53.1 °F 29.92 in ENE 0.9 mph 2.3 mph 88 % 0.00 in
21:32 56.5 °F 53.0 °F 29.91 in ENE 1.9 mph 3.5 mph 88 % 0.00 in
21:37 56.4 °F 52.9 °F 29.91 in ENE 1.5 mph 3.5 mph 88 % 0.00 in
21:42 56.3 °F 52.8 °F 29.91 in NE 1.4 mph 3.5 mph 88 % 0.00 in
21:48 56.3 °F 52.8 °F 29.90 in ENE 0.4 mph 3.5 mph 88 % 0.00 in
21:53 56.2 °F 52.7 °F 29.90 in ENE 0.2 mph 1.2 mph 88 % 0.00 in
21:58 56.2 °F 52.7 °F 29.90 in ENE 0.1 mph 1.2 mph 88 % 0.00 in
22:03 56.2 °F 52.7 °F 29.90 in ENE 0.3 mph 1.2 mph 88 % 0.00 in
22:08 56.2 °F 53.0 °F 29.90 in ENE 0.1 mph 1.2 mph 89 % 0.00 in
22:13 56.2 °F 53.0 °F 29.90 in ENE 0.7 mph 1.2 mph 89 % 0.00 in
22:18 56.2 °F 53.0 °F 29.90 in ENE 0.6 mph 2.3 mph 89 % 0.00 in
22:23 56.2 °F 53.0 °F 29.90 in ENE 0.8 mph 1.2 mph 89 % 0.00 in
22:28 56.2 °F 53.3 °F 29.90 in ENE 0.5 mph 1.2 mph 90 % 0.00 in
22:33 56.2 °F 53.3 °F 29.89 in ENE 0.3 mph 1.2 mph 90 % 0.00 in
22:39 56.2 °F 53.3 °F 29.89 in ENE 0.5 mph 2.3 mph 90 % 0.00 in
22:44 56.2 °F 53.3 °F 29.89 in Calm   1.2 mph 90 % 0.00 in
22:49 56.2 °F 53.6 °F 29.89 in ENE 0.2 mph 2.3 mph 91 % 0.00 in
22:54 56.2 °F 53.6 °F 29.89 in ENE 0.2 mph 1.2 mph 91 % 0.00 in
22:59 56.2 °F 53.6 °F 29.89 in ENE 0.8 mph 2.3 mph 91 % 0.00 in
23:04 56.1 °F 53.5 °F 29.89 in ENE 1.4 mph 2.3 mph 91 % 0.00 in
23:09 56.1 °F 53.8 °F 29.89 in ENE 2.0 mph 3.5 mph 92 % 0.00 in
23:14 56.0 °F 53.7 °F 29.88 in ENE 2.2 mph 4.6 mph 92 % 0.00 in
23:19 55.9 °F 53.6 °F 29.88 in ENE 1.9 mph 3.5 mph 92 % 0.00 in
23:25 55.9 °F 53.6 °F 29.88 in ENE 0.8 mph 2.0 mph 92 % 0.00 in
23:30 55.9 °F 53.6 °F 29.88 in ENE 0.9 mph 2.0 mph 92 % 0.00 in
23:35 55.8 °F 53.5 °F 29.87 in ENE 2.0 mph 3.5 mph 92 % 0.00 in
23:40 55.7 °F 53.4 °F 29.87 in ENE 0.4 mph 3.5 mph 92 % 0.00 in
23:45 55.7 °F 53.4 °F 29.87 in NE 1.3 mph 3.5 mph 92 % 0.00 in
23:50 55.6 °F 53.3 °F 29.87 in NE 0.6 mph 2.3 mph 92 % 0.00 in
23:55 55.7 °F 53.4 °F 29.86 in ENE 2.1 mph 3.5 mph 92 % 0.00 in
Crab Meadow Weather
Compliments of Weather Underground - 2.75 mb

Script developed by  Jim McMurry - jmcmurry@mwt.net Adapted for the template by  Wim van der Kuil - Leuven-Template.eu

Weather Terms: Freezing Rain/Freezing Drizzle - Rain or drizzle which falls in liquid form and freezes on impact with cold surfaces to form a glaze on the ground and exposed objects.